createdAt,value
2023-02-02T00:00:14.266Z,3.78
2023-02-02T00:01:14.243Z,3.78
2023-02-02T00:02:14.237Z,3.80
2023-02-02T00:03:14.217Z,3.80
2023-02-02T00:04:14.297Z,3.83
2023-02-02T00:05:14.214Z,3.83
2023-02-02T00:06:14.194Z,3.81
2023-02-02T00:07:14.164Z,3.84
2023-02-02T00:08:14.158Z,3.84
2023-02-02T00:09:14.186Z,3.87
2023-02-02T00:10:14.135Z,3.87
2023-02-02T00:11:14.134Z,3.83
2023-02-02T00:12:14.115Z,3.88
2023-02-02T00:13:14.105Z,4.02
2023-02-02T00:14:14.146Z,4.12
2023-02-02T00:15:14.103Z,4.08
2023-02-02T00:16:14.092Z,4.04
2023-02-02T00:17:14.048Z,3.98
2023-02-02T00:18:14.047Z,3.95
2023-02-02T00:19:14.033Z,3.98
2023-02-02T00:20:14.070Z,4.01
2023-02-02T00:21:14.002Z,4.06
2023-02-02T00:22:14.000Z,4.06
2023-02-02T00:23:14.006Z,4.13
2023-02-02T00:24:13.985Z,4.13
2023-02-02T00:25:14.004Z,4.19
2023-02-02T00:26:13.972Z,4.23
2023-02-02T00:27:13.954Z,4.19
2023-02-02T00:28:13.947Z,4.20
2023-02-02T00:29:13.924Z,4.23
2023-02-02T00:30:13.960Z,4.24
2023-02-02T00:31:13.963Z,4.30
2023-02-02T00:32:13.901Z,4.30
2023-02-02T00:33:13.890Z,4.28
2023-02-02T00:34:13.890Z,4.24
2023-02-02T00:35:13.879Z,4.23
2023-02-02T00:36:13.854Z,4.19
2023-02-02T00:37:13.834Z,4.16
2023-02-02T00:38:13.834Z,4.13
2023-02-02T00:39:13.793Z,4.16
2023-02-02T00:40:13.858Z,4.14
2023-02-02T00:41:13.806Z,4.16
2023-02-02T00:42:13.779Z,4.16
2023-02-02T00:43:13.768Z,4.20
2023-02-02T00:44:13.750Z,4.20
2023-02-02T00:45:13.781Z,4.23
2023-02-02T00:46:13.733Z,4.17
2023-02-02T00:47:13.731Z,4.14
2023-02-02T00:48:13.708Z,4.06
2023-02-02T00:49:13.705Z,3.99
2023-02-02T00:50:13.746Z,3.92
2023-02-02T00:51:13.667Z,3.95
2023-02-02T00:52:13.667Z,3.99
2023-02-02T00:53:13.656Z,4.01
2023-02-02T00:54:13.653Z,3.99
2023-02-02T00:55:13.669Z,4.04
2023-02-02T00:56:13.620Z,4.06
2023-02-02T00:57:13.611Z,4.02
2023-02-02T00:58:13.614Z,4.05
2023-02-02T00:59:13.585Z,4.02
2023-02-02T01:00:13.632Z,3.94
2023-02-02T01:01:13.592Z,3.88
2023-02-02T01:02:13.589Z,3.86
2023-02-02T01:03:13.528Z,3.96
2023-02-02T01:04:13.524Z,4.05
2023-02-02T01:05:13.563Z,4.10
2023-02-02T01:06:13.502Z,4.13
2023-02-02T01:07:13.506Z,4.17
2023-02-02T01:08:13.485Z,4.13
2023-02-02T01:09:13.465Z,4.12
2023-02-02T01:10:13.494Z,4.13
2023-02-02T01:11:13.452Z,4.24
2023-02-02T01:12:13.442Z,4.22
2023-02-02T01:13:13.422Z,4.20
2023-02-02T01:14:13.435Z,4.16
2023-02-02T01:15:13.435Z,4.20
2023-02-02T01:16:13.442Z,4.16
2023-02-02T01:17:13.374Z,4.17
2023-02-02T01:18:13.378Z,4.17
2023-02-02T01:19:13.351Z,4.19
2023-02-02T01:20:13.385Z,4.24
2023-02-02T01:21:13.360Z,4.24
2023-02-02T01:22:13.326Z,4.19
2023-02-02T01:23:13.300Z,4.17
2023-02-02T01:24:13.306Z,4.19
2023-02-02T01:25:13.426Z,4.19
2023-02-02T01:26:13.290Z,4.16
2023-02-02T01:27:13.280Z,4.14
2023-02-02T01:28:13.251Z,4.14
2023-02-02T01:29:13.250Z,4.14
2023-02-02T01:30:13.283Z,4.16
2023-02-02T01:31:13.267Z,4.17
2023-02-02T01:32:13.201Z,4.17
2023-02-02T01:33:13.212Z,4.16
2023-02-02T01:34:13.181Z,4.16
2023-02-02T01:35:13.225Z,4.17
2023-02-02T01:36:13.185Z,4.19
2023-02-02T01:37:13.144Z,4.24
2023-02-02T01:38:13.152Z,4.23
2023-02-02T01:39:13.132Z,4.24
2023-02-02T01:40:13.188Z,4.24
2023-02-02T01:41:13.103Z,4.34
2023-02-02T01:42:13.111Z,4.35
2023-02-02T01:43:13.080Z,4.34
2023-02-02T01:44:13.087Z,4.35
2023-02-02T01:45:13.103Z,4.41
2023-02-02T01:46:13.114Z,4.41
2023-02-02T01:47:13.042Z,4.38
2023-02-02T01:48:13.038Z,4.38
2023-02-02T01:49:13.027Z,4.35
2023-02-02T01:50:13.066Z,4.35
2023-02-02T01:51:13.029Z,4.35
2023-02-02T01:52:12.984Z,4.35
2023-02-02T01:53:12.980Z,4.32
2023-02-02T01:54:12.976Z,4.34
2023-02-02T01:55:12.988Z,4.35
2023-02-02T01:56:12.973Z,4.37
2023-02-02T01:57:12.954Z,4.38
2023-02-02T01:58:12.932Z,4.42
2023-02-02T01:59:12.916Z,4.42
2023-02-02T02:00:12.949Z,4.41
2023-02-02T02:01:12.925Z,4.41
2023-02-02T02:02:12.903Z,4.42
2023-02-02T02:03:12.877Z,4.45
2023-02-02T02:04:12.860Z,4.49
2023-02-02T02:05:12.896Z,4.49
2023-02-02T02:06:12.909Z,4.53
2023-02-02T02:07:12.830Z,4.58
2023-02-02T02:08:12.803Z,4.58
2023-02-02T02:09:12.798Z,4.60
2023-02-02T02:10:12.828Z,4.60
2023-02-02T02:11:12.775Z,4.66
2023-02-02T02:12:12.763Z,4.68
2023-02-02T02:13:12.748Z,4.70
2023-02-02T02:14:12.766Z,4.70
2023-02-02T02:15:12.770Z,4.71
2023-02-02T02:16:12.755Z,4.71
2023-02-02T02:17:12.730Z,4.75
2023-02-02T02:18:12.702Z,4.82
2023-02-02T02:19:12.679Z,4.82
2023-02-02T02:20:12.714Z,4.78
2023-02-02T02:21:12.664Z,4.80
2023-02-02T02:22:12.649Z,4.82
2023-02-02T02:23:12.635Z,4.86
2023-02-02T02:24:12.655Z,4.86
2023-02-02T02:25:12.650Z,4.87
2023-02-02T02:26:12.612Z,4.89
2023-02-02T02:27:12.591Z,4.87
2023-02-02T02:28:12.593Z,4.84
2023-02-02T02:29:12.582Z,4.87
2023-02-02T02:30:12.612Z,4.87
2023-02-02T02:31:12.675Z,4.92
2023-02-02T02:32:12.544Z,4.93
2023-02-02T02:33:12.506Z,4.93
2023-02-02T02:34:12.498Z,4.94
2023-02-02T02:35:12.542Z,4.92
2023-02-02T02:36:12.497Z,4.93
2023-02-02T02:37:12.466Z,4.93
2023-02-02T02:38:12.466Z,4.92
2023-02-02T02:39:12.435Z,4.93
2023-02-02T02:40:12.487Z,4.96
2023-02-02T02:41:12.420Z,4.99
2023-02-02T02:42:12.425Z,5.02
2023-02-02T02:43:12.432Z,5.04
2023-02-02T02:44:12.392Z,5.02
2023-02-02T02:45:12.431Z,5.02
2023-02-02T02:46:12.417Z,5.02
2023-02-02T02:47:12.354Z,5.10
2023-02-02T02:48:12.359Z,5.14
2023-02-02T02:49:12.328Z,5.15
2023-02-02T02:50:12.362Z,5.14
2023-02-02T02:51:12.301Z,5.15
2023-02-02T02:52:12.326Z,5.17
2023-02-02T02:53:12.284Z,5.17
2023-02-02T02:54:12.283Z,5.11
2023-02-02T02:55:12.314Z,5.11
2023-02-02T02:56:12.259Z,5.15
2023-02-02T02:57:12.237Z,5.12
2023-02-02T02:58:12.239Z,5.11
2023-02-02T02:59:12.231Z,5.11
2023-02-02T03:00:12.252Z,5.12
2023-02-02T03:01:12.279Z,5.12
2023-02-02T03:02:12.200Z,5.12
2023-02-02T03:03:12.180Z,5.18
2023-02-02T03:04:12.158Z,5.17
2023-02-02T03:05:12.203Z,5.17
2023-02-02T03:06:12.135Z,5.15
2023-02-02T03:07:12.124Z,5.11
2023-02-02T03:08:12.107Z,5.10
2023-02-02T03:09:12.116Z,5.10
2023-02-02T03:10:12.112Z,5.10
2023-02-02T03:11:12.082Z,5.12
2023-02-02T03:12:12.058Z,5.10
2023-02-02T03:13:12.049Z,5.10
2023-02-02T03:14:12.037Z,5.08
2023-02-02T03:15:12.068Z,5.11
2023-02-02T03:16:12.097Z,5.14
2023-02-02T03:17:12.037Z,5.12
2023-02-02T03:18:12.008Z,5.12
2023-02-02T03:19:11.995Z,5.12
2023-02-02T03:20:12.040Z,5.12
2023-02-02T03:21:11.957Z,5.17
2023-02-02T03:22:11.934Z,5.20
2023-02-02T03:23:11.936Z,5.23
2023-02-02T03:24:11.936Z,5.26
2023-02-02T03:25:11.966Z,5.29
2023-02-02T03:26:11.889Z,5.26
2023-02-02T03:27:11.901Z,5.26
2023-02-02T03:28:11.902Z,5.25
2023-02-02T03:29:11.874Z,5.28
2023-02-02T03:30:11.886Z,5.25
2023-02-02T03:31:11.972Z,5.23
2023-02-02T03:32:11.822Z,5.23
2023-02-02T03:33:11.825Z,5.29
2023-02-02T03:34:11.816Z,5.28
2023-02-02T03:35:11.830Z,5.28
2023-02-02T03:36:11.783Z,5.25
2023-02-02T03:37:11.781Z,5.28
2023-02-02T03:38:11.776Z,5.25
2023-02-02T03:39:11.748Z,5.26
2023-02-02T03:40:11.792Z,5.25
2023-02-02T03:41:11.723Z,5.23
2023-02-02T03:42:11.711Z,5.21
2023-02-02T03:43:11.711Z,5.18
2023-02-02T03:44:11.691Z,5.17
2023-02-02T03:45:11.727Z,5.14
2023-02-02T03:46:11.692Z,5.15
2023-02-02T03:47:11.675Z,5.14
2023-02-02T03:48:11.659Z,5.12
2023-02-02T03:49:11.639Z,5.17
2023-02-02T03:50:11.673Z,5.21
2023-02-02T03:51:11.669Z,5.25
2023-02-02T03:52:11.600Z,5.25
2023-02-02T03:53:11.591Z,5.26
2023-02-02T03:54:11.574Z,5.25
2023-02-02T03:55:11.620Z,5.25
2023-02-02T03:56:11.566Z,5.28
2023-02-02T03:57:11.548Z,5.28
2023-02-02T03:58:11.547Z,5.28
2023-02-02T03:59:11.522Z,5.25
2023-02-02T04:00:11.524Z,5.23
2023-02-02T04:01:11.498Z,5.21
2023-02-02T04:02:11.480Z,5.23
2023-02-02T04:03:11.476Z,5.21
2023-02-02T04:04:11.471Z,5.18
2023-02-02T04:05:11.502Z,5.14
2023-02-02T04:06:11.434Z,5.08
2023-02-02T04:07:11.429Z,5.05
2023-02-02T04:08:11.426Z,5.02
2023-02-02T04:09:11.418Z,5.00
2023-02-02T04:10:11.431Z,4.97
2023-02-02T04:11:11.393Z,4.97
2023-02-02T04:12:11.361Z,4.99
2023-02-02T04:13:11.342Z,4.99
2023-02-02T04:14:11.384Z,4.93
2023-02-02T04:15:11.337Z,4.92
2023-02-02T04:16:11.424Z,4.86
2023-02-02T04:17:11.316Z,4.87
2023-02-02T04:18:11.304Z,4.86
2023-02-02T04:19:11.286Z,4.84
2023-02-02T04:20:11.294Z,4.80
2023-02-02T04:21:11.297Z,4.78
2023-02-02T04:22:11.265Z,4.75
2023-02-02T04:23:11.248Z,4.74
2023-02-02T04:24:11.231Z,4.71
2023-02-02T04:25:11.217Z,4.73
2023-02-02T04:26:11.242Z,4.77
2023-02-02T04:27:11.187Z,4.78
2023-02-02T04:28:11.191Z,4.74
2023-02-02T04:29:11.175Z,4.75
2023-02-02T04:30:11.157Z,4.75
2023-02-02T04:31:11.347Z,4.74
2023-02-02T04:32:11.125Z,4.70
2023-02-02T04:33:11.124Z,4.70
2023-02-02T04:34:11.108Z,4.67
2023-02-02T04:35:11.106Z,4.68
2023-02-02T04:36:11.111Z,4.68
2023-02-02T04:37:11.072Z,4.71
2023-02-02T04:38:11.057Z,4.67
2023-02-02T04:39:11.051Z,4.67
2023-02-02T04:40:11.040Z,4.67
2023-02-02T04:41:11.077Z,4.67
2023-02-02T04:42:11.008Z,4.67
2023-02-02T04:43:10.992Z,4.67
2023-02-02T04:44:10.993Z,4.60
2023-02-02T04:45:10.978Z,4.60
2023-02-02T04:46:11.056Z,4.56
2023-02-02T04:47:10.968Z,4.55
2023-02-02T04:48:10.944Z,4.53
2023-02-02T04:49:10.933Z,4.50
2023-02-02T04:50:10.922Z,4.45
2023-02-02T04:51:10.935Z,4.49
2023-02-02T04:52:10.922Z,4.45
2023-02-02T04:53:10.900Z,4.48
2023-02-02T04:54:10.889Z,4.48
2023-02-02T04:55:10.892Z,4.49
2023-02-02T04:56:10.880Z,4.49
2023-02-02T04:57:10.849Z,4.49
2023-02-02T04:58:10.842Z,4.48
2023-02-02T04:59:10.836Z,4.49
2023-02-02T05:00:10.788Z,4.48
2023-02-02T05:01:10.902Z,4.48
2023-02-02T05:02:10.767Z,4.45
2023-02-02T05:03:10.782Z,4.44
2023-02-02T05:04:10.805Z,4.44
2023-02-02T05:05:10.751Z,4.45
2023-02-02T05:06:10.786Z,4.44
2023-02-02T05:07:10.735Z,4.44
2023-02-02T05:08:10.733Z,4.44
2023-02-02T05:09:10.694Z,4.44
2023-02-02T05:10:10.699Z,4.42
2023-02-02T05:11:10.726Z,4.44
2023-02-02T05:12:10.658Z,4.42
2023-02-02T05:13:10.666Z,4.44
2023-02-02T05:14:10.662Z,4.44
2023-02-02T05:15:10.641Z,4.45
2023-02-02T05:16:10.681Z,4.44
2023-02-02T05:17:10.606Z,4.45
2023-02-02T05:18:10.611Z,4.44
2023-02-02T05:19:10.614Z,4.44
2023-02-02T05:20:10.594Z,4.42
2023-02-02T05:21:10.596Z,4.44
2023-02-02T05:22:10.554Z,4.41
2023-02-02T05:23:10.552Z,4.41
2023-02-02T05:24:10.538Z,4.42
2023-02-02T05:25:10.517Z,4.41
2023-02-02T05:26:10.547Z,4.42
2023-02-02T05:27:10.486Z,4.41
2023-02-02T05:28:10.471Z,4.38
2023-02-02T05:29:10.476Z,4.37
2023-02-02T05:30:10.444Z,4.40
2023-02-02T05:31:10.572Z,4.42
2023-02-02T05:32:10.491Z,4.44
2023-02-02T05:33:10.437Z,4.45
2023-02-02T05:34:10.438Z,4.45
2023-02-02T05:35:10.407Z,4.45
2023-02-02T05:36:10.456Z,4.48
2023-02-02T05:37:10.421Z,4.52
2023-02-02T05:38:10.377Z,4.53
2023-02-02T05:39:10.395Z,4.52
2023-02-02T05:40:10.341Z,4.55
2023-02-02T05:41:10.421Z,4.50
2023-02-02T05:42:10.341Z,4.50
2023-02-02T05:43:10.313Z,4.50
2023-02-02T05:44:10.343Z,4.45
2023-02-02T05:45:10.294Z,4.44
2023-02-02T05:46:10.417Z,4.40
2023-02-02T05:47:10.294Z,4.40
2023-02-02T05:48:10.266Z,4.37
2023-02-02T05:49:10.263Z,4.37
2023-02-02T05:50:10.228Z,4.37
2023-02-02T05:51:10.263Z,4.34
2023-02-02T05:52:10.209Z,4.31
2023-02-02T05:53:10.206Z,4.28
2023-02-02T05:54:10.211Z,4.28
2023-02-02T05:55:10.166Z,4.32
2023-02-02T05:56:10.190Z,4.30
2023-02-02T05:57:10.148Z,4.24
2023-02-02T05:58:10.146Z,4.28
2023-02-02T05:59:10.145Z,4.31
2023-02-02T06:00:10.146Z,4.26
2023-02-02T06:01:10.194Z,4.22
2023-02-02T06:02:10.098Z,4.20
2023-02-02T06:03:10.246Z,4.22
2023-02-02T06:04:10.108Z,4.23
2023-02-02T06:05:10.088Z,4.23
2023-02-02T06:06:10.045Z,4.23
2023-02-02T06:07:10.088Z,4.26
2023-02-02T06:08:10.033Z,4.30
2023-02-02T06:09:10.029Z,4.30
2023-02-02T06:10:10.010Z,4.31
2023-02-02T06:11:09.998Z,4.30
2023-02-02T06:12:10.030Z,4.28
2023-02-02T06:13:09.969Z,4.31
2023-02-02T06:14:09.965Z,4.31
2023-02-02T06:15:09.948Z,4.26
2023-02-02T06:16:10.005Z,4.28
2023-02-02T06:17:09.997Z,4.22
2023-02-02T06:18:09.927Z,4.22
2023-02-02T06:19:09.933Z,4.19
2023-02-02T06:20:09.899Z,4.20
2023-02-02T06:21:09.889Z,4.24
2023-02-02T06:22:09.956Z,4.19
2023-02-02T06:23:09.895Z,4.17
2023-02-02T06:24:09.865Z,4.14
2023-02-02T06:25:09.849Z,4.13
2023-02-02T06:26:09.834Z,4.13
2023-02-02T06:27:09.868Z,4.12
2023-02-02T06:28:09.791Z,4.06
2023-02-02T06:29:09.798Z,4.02
2023-02-02T06:30:09.801Z,3.98
2023-02-02T06:31:09.877Z,4.01
2023-02-02T06:32:09.853Z,4.04
2023-02-02T06:33:09.755Z,4.13
2023-02-02T06:34:09.752Z,4.14
2023-02-02T06:35:09.754Z,4.19
2023-02-02T06:36:09.733Z,4.20
2023-02-02T06:37:09.742Z,4.22
2023-02-02T06:38:09.699Z,4.23
2023-02-02T06:39:09.736Z,4.28
2023-02-02T06:40:09.683Z,4.30
2023-02-02T06:41:09.680Z,4.34
2023-02-02T06:42:20.797Z,4.37
2023-02-02T06:43:10.632Z,4.37
2023-02-02T06:44:09.657Z,4.38
2023-02-02T06:45:09.622Z,4.40
2023-02-02T06:46:09.665Z,4.35
2023-02-02T06:47:09.622Z,4.37
2023-02-02T06:48:09.573Z,4.35
2023-02-02T06:49:09.594Z,4.35
2023-02-02T06:50:09.586Z,4.35
2023-02-02T06:51:09.666Z,4.37
2023-02-02T06:52:09.575Z,4.40
2023-02-02T06:53:09.504Z,4.41
2023-02-02T06:54:09.538Z,4.41
2023-02-02T06:55:09.505Z,4.40
2023-02-02T06:56:09.487Z,4.35
2023-02-02T06:57:09.543Z,4.34
2023-02-02T06:58:09.458Z,4.35
2023-02-02T06:59:09.474Z,4.40
2023-02-02T07:00:09.438Z,4.42
2023-02-02T07:01:09.495Z,4.44
2023-02-02T07:02:09.468Z,4.44
2023-02-02T07:03:09.408Z,4.45
2023-02-02T07:04:09.407Z,4.48
2023-02-02T07:05:09.383Z,4.49
2023-02-02T07:06:09.370Z,4.52
2023-02-02T07:07:09.418Z,4.56
2023-02-02T07:08:09.403Z,4.58
2023-02-02T07:09:09.392Z,4.58
2023-02-02T07:10:09.325Z,4.60
2023-02-02T07:11:15.208Z,4.62
2023-02-02T07:12:10.341Z,4.63
2023-02-02T07:13:09.303Z,4.63
2023-02-02T07:14:09.283Z,4.62
2023-02-02T07:15:09.289Z,4.62
2023-02-02T07:16:09.366Z,4.66
2023-02-02T07:17:09.292Z,4.67
2023-02-02T07:18:09.332Z,4.67
2023-02-02T07:19:09.221Z,4.68
2023-02-02T07:20:09.206Z,4.68
2023-02-02T07:21:09.201Z,4.70
2023-02-02T07:22:09.237Z,4.75
2023-02-02T07:23:09.188Z,4.78
2023-02-02T07:24:09.179Z,4.82
2023-02-02T07:25:09.142Z,4.86
2023-02-02T07:26:09.146Z,4.90
2023-02-02T07:27:09.132Z,4.93
2023-02-02T07:28:09.188Z,4.92
2023-02-02T07:29:09.131Z,4.93
2023-02-02T07:30:09.116Z,4.96
2023-02-02T07:31:09.161Z,4.97
2023-02-02T07:32:09.075Z,4.99
2023-02-02T07:33:09.113Z,5.02
2023-02-02T07:34:09.056Z,5.02
2023-02-02T07:35:09.051Z,5.07
2023-02-02T07:36:09.055Z,5.04
2023-02-02T07:37:09.027Z,5.08
2023-02-02T07:38:09.022Z,5.10
2023-02-02T07:39:08.997Z,5.14
2023-02-02T07:40:08.978Z,5.18
2023-02-02T07:41:09.077Z,5.23
2023-02-02T07:42:08.995Z,5.23
2023-02-02T07:43:08.999Z,5.28
2023-02-02T07:44:08.944Z,5.36
2023-02-02T07:45:26.811Z,5.38
2023-02-02T07:46:10.052Z,5.44
2023-02-02T07:47:08.895Z,5.41
2023-02-02T07:48:08.891Z,5.41
2023-02-02T07:49:08.957Z,5.39
2023-02-02T07:50:08.885Z,5.36
2023-02-02T07:51:08.880Z,5.39
2023-02-02T07:52:08.851Z,5.39
2023-02-02T07:53:08.863Z,5.47
2023-02-02T07:54:08.877Z,5.48
2023-02-02T07:55:14.847Z,5.50
2023-02-02T07:56:09.800Z,5.51
2023-02-02T07:57:08.786Z,5.54
2023-02-02T07:58:08.796Z,5.56
2023-02-02T07:59:08.828Z,5.61
2023-02-02T08:00:08.763Z,5.64
2023-02-02T08:01:08.780Z,5.69
2023-02-02T08:02:08.830Z,5.75
2023-02-02T08:03:08.767Z,5.91
2023-02-02T08:04:08.751Z,5.94
2023-02-02T08:05:08.699Z,6.01
2023-02-02T08:06:08.657Z,6.01
2023-02-02T08:07:08.677Z,6.01
2023-02-02T08:08:08.648Z,6.07
2023-02-02T08:09:08.702Z,6.05
2023-02-02T08:10:08.655Z,6.08
2023-02-02T08:11:08.643Z,6.08
2023-02-02T08:12:08.630Z,6.07
2023-02-02T08:13:08.585Z,6.07
2023-02-02T08:14:08.646Z,6.07
2023-02-02T08:15:08.603Z,6.11
2023-02-02T08:16:08.634Z,6.44
2023-02-02T08:17:08.553Z,6.36
2023-02-02T08:18:08.548Z,6.36
2023-02-02T08:19:08.559Z,6.35
2023-02-02T08:20:08.512Z,6.22
2023-02-02T08:21:08.513Z,6.26
2023-02-02T08:22:08.511Z,6.17
2023-02-02T08:23:08.494Z,6.11
2023-02-02T08:24:08.503Z,6.05
2023-02-02T08:25:08.444Z,6.05
2023-02-02T08:26:08.473Z,5.94
2023-02-02T08:27:08.443Z,5.91
2023-02-02T08:28:08.433Z,5.91
2023-02-02T08:29:08.477Z,5.91
2023-02-02T08:30:08.407Z,5.91
2023-02-02T08:31:08.457Z,5.90
2023-02-02T08:32:08.381Z,5.90
2023-02-02T08:33:08.406Z,5.87
2023-02-02T08:34:08.423Z,5.86
2023-02-02T08:35:08.345Z,5.87
2023-02-02T08:36:08.318Z,5.87
2023-02-02T08:37:08.327Z,5.87
2023-02-02T08:38:08.320Z,5.84
2023-02-02T08:39:08.347Z,5.83
2023-02-02T08:40:08.385Z,5.86
2023-02-02T08:41:08.293Z,5.82
2023-02-02T08:42:08.271Z,5.87
2023-02-02T08:43:10.605Z,5.90
2023-02-02T08:44:10.894Z,5.91
2023-02-02T08:46:09.296Z,6.05
2023-02-02T08:46:13.589Z,5.94
2023-02-02T08:47:08.364Z,6.09
2023-02-02T08:48:12.120Z,6.14
2023-02-02T08:49:08.233Z,6.30
2023-02-02T08:50:08.170Z,6.26
2023-02-02T08:51:08.167Z,6.31
2023-02-02T08:52:08.158Z,6.39
2023-02-02T08:53:08.165Z,6.46
2023-02-02T08:54:08.210Z,6.57
2023-02-02T08:55:08.144Z,7.32
2023-02-02T08:56:08.122Z,7.07
2023-02-02T08:57:08.094Z,6.88
2023-02-02T08:58:08.074Z,6.69
2023-02-02T08:59:08.081Z,7.32
2023-02-02T09:00:08.090Z,7.54
2023-02-02T09:01:08.057Z,7.31
2023-02-02T09:02:08.069Z,8.00
2023-02-02T09:03:07.998Z,8.69
2023-02-02T09:04:08.017Z,9.03
2023-02-02T09:05:08.017Z,9.25
2023-02-02T09:06:07.985Z,9.28
2023-02-02T09:07:07.992Z,8.94
2023-02-02T09:08:07.962Z,8.87
2023-02-02T09:09:07.969Z,8.70
2023-02-02T09:10:07.989Z,8.36
2023-02-02T09:11:07.966Z,8.16
2023-02-02T09:12:07.947Z,7.97
2023-02-02T09:13:07.927Z,7.83
2023-02-02T09:14:07.920Z,7.70
2023-02-02T09:15:07.917Z,7.54
2023-02-02T09:16:07.919Z,7.47
2023-02-02T09:17:07.855Z,7.24
2023-02-02T09:18:07.889Z,7.15
2023-02-02T09:19:07.835Z,7.06
2023-02-02T09:20:07.861Z,7.05
2023-02-02T09:21:07.832Z,7.07
2023-02-02T09:22:07.797Z,6.97
2023-02-02T09:23:07.797Z,6.87
2023-02-02T09:24:07.790Z,6.77
2023-02-02T09:25:07.799Z,6.57
2023-02-02T09:26:07.771Z,6.41
2023-02-02T09:27:07.756Z,6.19
2023-02-02T09:28:07.733Z,5.98
2023-02-02T09:29:07.732Z,5.79
2023-02-02T09:30:07.748Z,5.62
2023-02-02T09:31:07.702Z,5.50
2023-02-02T09:32:07.729Z,5.33
2023-02-02T09:33:07.678Z,5.15
2023-02-02T09:34:07.660Z,5.04
2023-02-02T09:35:07.701Z,5.02
2023-02-02T09:36:07.659Z,5.50
2023-02-02T09:37:07.614Z,5.82
2023-02-02T09:38:07.637Z,6.14
2023-02-02T09:39:07.619Z,6.46
2023-02-02T09:40:07.656Z,6.59
2023-02-02T09:41:07.829Z,6.63
2023-02-02T09:42:07.577Z,6.87
2023-02-02T09:43:07.554Z,7.05
2023-02-02T09:44:07.565Z,7.20
2023-02-02T09:45:07.604Z,7.36
2023-02-02T09:46:07.587Z,7.33
2023-02-02T09:47:07.524Z,7.47
2023-02-02T09:48:07.524Z,7.54
2023-02-02T09:49:07.488Z,7.76
2023-02-02T09:50:07.555Z,7.83
2023-02-02T09:51:07.469Z,7.72
2023-02-02T09:52:07.455Z,7.76
2023-02-02T09:53:08.030Z,7.88
2023-02-02T09:54:07.460Z,7.77
2023-02-02T09:55:07.458Z,7.76
2023-02-02T09:56:07.414Z,7.85
2023-02-02T09:57:07.425Z,7.94
2023-02-02T09:58:07.398Z,7.90
2023-02-02T09:59:19.404Z,8.12
2023-02-02T10:00:08.399Z,8.28
2023-02-02T10:01:07.403Z,8.09
2023-02-02T10:02:07.350Z,8.06
2023-02-02T10:03:07.330Z,7.75
2023-02-02T10:04:07.486Z,7.45
2023-02-02T10:05:08.357Z,7.07
2023-02-02T10:06:07.285Z,6.92
2023-02-02T10:07:07.296Z,6.92
2023-02-02T10:08:07.316Z,6.89
2023-02-02T10:09:07.273Z,6.79
2023-02-02T10:10:07.316Z,6.67
2023-02-02T10:11:07.258Z,6.51
2023-02-02T10:12:07.246Z,6.36
2023-02-02T10:13:07.192Z,6.44
2023-02-02T10:14:07.226Z,6.41
2023-02-02T10:15:07.208Z,6.60
2023-02-02T10:16:07.261Z,6.78
2023-02-02T10:17:07.186Z,6.89
2023-02-02T10:18:07.190Z,7.02
2023-02-02T10:19:07.177Z,7.21
2023-02-02T10:20:07.173Z,7.28
2023-02-02T10:21:07.109Z,7.54
2023-02-02T10:22:07.131Z,7.76
2023-02-02T10:23:07.130Z,7.82
2023-02-02T10:24:07.106Z,7.80
2023-02-02T10:25:07.120Z,7.73
2023-02-02T10:26:07.091Z,7.70
2023-02-02T10:27:07.114Z,7.61
2023-02-02T10:28:07.079Z,7.70
2023-02-02T10:29:07.055Z,7.93
2023-02-02T10:30:07.059Z,8.00
2023-02-02T10:31:07.058Z,8.23
2023-02-02T10:32:07.039Z,8.42
2023-02-02T10:33:06.990Z,8.53
2023-02-02T10:34:07.031Z,8.49
2023-02-02T10:35:16.180Z,8.48
2023-02-02T10:36:07.962Z,8.61
2023-02-02T10:37:07.000Z,8.53
2023-02-02T10:38:07.490Z,8.19
2023-02-02T10:39:06.918Z,8.27
2023-02-02T10:40:06.980Z,8.12
2023-02-02T10:41:06.902Z,7.98
2023-02-02T10:42:06.896Z,7.87
2023-02-02T10:43:06.857Z,7.73
2023-02-02T10:44:06.885Z,7.77
2023-02-02T10:45:06.890Z,7.56
2023-02-02T10:46:06.871Z,7.50
2023-02-02T10:47:06.837Z,7.57
2023-02-02T10:48:06.831Z,7.50
2023-02-02T10:49:06.819Z,7.51
2023-02-02T10:50:06.897Z,7.61
2023-02-02T10:51:06.805Z,7.79
2023-02-02T10:52:06.763Z,7.87
2023-02-02T10:53:06.753Z,7.94
2023-02-02T10:54:06.753Z,7.79
2023-02-02T10:55:06.787Z,7.67
2023-02-02T10:56:06.766Z,7.60
2023-02-02T10:57:06.709Z,7.54
2023-02-02T10:58:06.698Z,7.25
2023-02-02T10:59:06.680Z,7.18
2023-02-02T11:00:06.698Z,7.11
2023-02-02T11:01:06.697Z,7.07
2023-02-02T11:02:20.470Z,7.13
2023-02-02T11:03:07.667Z,7.28
2023-02-02T11:04:06.739Z,7.38
2023-02-02T11:05:06.656Z,7.77
2023-02-02T11:06:06.613Z,8.12
2023-02-02T11:07:06.593Z,8.03
2023-02-02T11:08:06.591Z,7.88
2023-02-02T11:09:06.577Z,7.93
2023-02-02T11:10:06.635Z,8.03
2023-02-02T11:11:06.561Z,8.05
2023-02-02T11:12:06.555Z,7.87
2023-02-02T11:13:06.533Z,7.90
2023-02-02T11:14:06.527Z,7.77
2023-02-02T11:15:06.533Z,7.73
2023-02-02T11:16:06.547Z,7.61
2023-02-02T11:17:06.489Z,7.53
2023-02-02T11:18:06.470Z,7.40
2023-02-02T11:19:06.481Z,7.35
2023-02-02T11:20:06.495Z,7.29
2023-02-02T11:21:06.432Z,7.25
2023-02-02T11:22:06.440Z,7.25
2023-02-02T11:23:06.419Z,7.31
2023-02-02T11:24:06.416Z,7.32
2023-02-02T11:25:06.374Z,7.31
2023-02-02T11:26:06.448Z,7.29
2023-02-02T11:27:06.361Z,7.29
2023-02-02T11:28:06.339Z,7.17
2023-02-02T11:29:06.329Z,7.15
2023-02-02T11:30:06.313Z,7.13
2023-02-02T11:31:06.442Z,7.15
2023-02-02T11:32:06.315Z,7.17
2023-02-02T11:33:06.299Z,7.17
2023-02-02T11:34:06.289Z,7.11
2023-02-02T11:35:06.304Z,7.05
2023-02-02T11:36:06.316Z,7.11
2023-02-02T11:37:06.265Z,7.06
2023-02-02T11:38:06.233Z,7.05
2023-02-02T11:39:06.242Z,7.03
2023-02-02T11:40:06.221Z,7.03
2023-02-02T11:41:06.247Z,7.02
2023-02-02T11:42:06.213Z,7.03
2023-02-02T11:43:06.169Z,6.99
2023-02-02T11:44:06.173Z,6.97
2023-02-02T11:45:06.164Z,6.96
2023-02-02T11:46:06.272Z,6.95
2023-02-02T11:47:06.152Z,6.96
2023-02-02T11:48:06.104Z,6.93
2023-02-02T11:49:06.112Z,6.96
2023-02-02T11:50:06.097Z,7.00
2023-02-02T11:51:06.165Z,6.99
2023-02-02T11:52:06.677Z,7.02
2023-02-02T11:53:06.076Z,7.13
2023-02-02T11:54:06.074Z,7.07
2023-02-02T11:55:06.104Z,7.10
2023-02-02T11:56:06.032Z,7.05
2023-02-02T11:57:06.011Z,7.05
2023-02-02T11:58:05.972Z,7.06
2023-02-02T11:59:06.015Z,7.10
2023-02-02T12:00:05.981Z,7.18
2023-02-02T12:01:05.985Z,7.28
2023-02-02T12:02:05.983Z,7.38
2023-02-02T12:03:05.973Z,8.28
2023-02-02T12:04:05.941Z,9.28
2023-02-02T12:05:05.932Z,9.11
2023-02-02T12:06:05.947Z,8.97
2023-02-02T12:07:05.909Z,8.95
2023-02-02T12:08:05.907Z,9.02
2023-02-02T12:09:05.870Z,9.32
2023-02-02T12:10:05.869Z,9.64
2023-02-02T12:11:05.904Z,9.29
2023-02-02T12:12:05.838Z,9.25
2023-02-02T12:13:05.838Z,9.83
2023-02-02T12:14:05.817Z,9.59
2023-02-02T12:15:05.812Z,9.11
2023-02-02T12:16:08.670Z,8.58
2023-02-02T12:17:05.792Z,8.28
2023-02-02T12:18:05.826Z,8.16
2023-02-02T12:19:05.758Z,8.24
2023-02-02T12:20:05.773Z,7.95
2023-02-02T12:21:05.774Z,7.80
2023-02-02T12:22:05.747Z,7.90
2023-02-02T12:23:05.715Z,8.00
2023-02-02T12:24:05.728Z,7.91
2023-02-02T12:25:05.688Z,7.76
2023-02-02T12:26:05.761Z,7.79
2023-02-02T12:27:05.668Z,7.83
2023-02-02T12:28:05.649Z,7.83
2023-02-02T12:29:05.657Z,7.76
2023-02-02T12:30:05.611Z,7.67
2023-02-02T12:31:05.662Z,7.76
2023-02-02T12:32:05.675Z,7.70
2023-02-02T12:33:05.605Z,7.63
2023-02-02T12:34:05.611Z,7.54
2023-02-02T12:35:05.561Z,7.51
2023-02-02T12:36:05.611Z,7.53
2023-02-02T12:37:05.561Z,7.56
2023-02-02T12:38:05.532Z,8.10
2023-02-02T12:39:05.532Z,8.05
2023-02-02T12:40:05.524Z,8.06
2023-02-02T12:41:05.581Z,7.91
2023-02-02T12:42:05.501Z,7.87
2023-02-02T12:43:05.490Z,7.85
2023-02-02T12:44:05.467Z,7.82
2023-02-02T12:45:05.467Z,7.73
2023-02-02T12:46:05.541Z,7.67
2023-02-02T12:47:05.433Z,7.66
2023-02-02T12:48:05.454Z,7.57
2023-02-02T12:49:05.424Z,7.70
2023-02-02T12:50:05.403Z,7.87
2023-02-02T12:51:05.445Z,9.16
2023-02-02T12:52:05.398Z,10.10
2023-02-02T12:53:05.386Z,10.54
2023-02-02T12:54:34.156Z,10.78
2023-02-02T12:55:06.362Z,10.63
2023-02-02T12:56:05.364Z,10.72
2023-02-02T12:57:05.343Z,11.27
2023-02-02T12:58:07.402Z,11.19
2023-02-02T12:59:05.295Z,10.25
2023-02-02T13:00:05.312Z,9.73
2023-02-02T13:01:05.365Z,9.59
2023-02-02T13:02:05.322Z,9.86
2023-02-02T13:03:05.284Z,10.22
2023-02-02T13:04:07.424Z,10.86
2023-02-02T13:05:05.272Z,11.27
2023-02-02T13:06:05.289Z,10.48
2023-02-02T13:07:05.254Z,9.86
2023-02-02T13:08:05.202Z,9.11
2023-02-02T13:09:05.184Z,8.79
2023-02-02T13:10:05.183Z,8.38
2023-02-02T13:11:05.268Z,8.19
2023-02-02T13:12:05.161Z,8.00
2023-02-02T13:13:05.168Z,7.95
2023-02-02T13:14:05.140Z,7.90
2023-02-02T13:15:05.139Z,7.87
2023-02-02T13:16:05.118Z,7.79
2023-02-02T13:17:05.112Z,7.79
2023-02-02T13:18:05.094Z,7.79